Time;durP1;ratioP1;P1;durP2;ratioP2;P2;SDS_P1;SDS_P2;PMS_P1;PMS_P2;Temp;Humidity;BMP_temperature;BMP_pressure;BME280_temperature;BME280_humidity;BME280_pressure;Samples;Min_cycle;Max_cycle;Signal;HPM_P1;HPM_P2
2023/12/14 00:00:30;;;;;;;31.30;26.02;;;;;;;;;;10206642;28;20077;-65
2023/12/14 00:05:28;;;;;;;34.22;27.92;;;;;;;;;;10205905;28;20074;-66
2023/12/14 00:10:27;;;;;;;29.60;26.40;;;;;;;;;;10205449;28;20083;-65
2023/12/14 00:15:26;;;;;;;30.38;25.80;;;;;;;;;;10211980;28;20541;-65
2023/12/14 00:20:25;;;;;;;28.95;25.27;;;;;;;;;;10209778;28;20057;-65
2023/12/14 00:25:23;;;;;;;30.85;24.80;;;;;;;;;;10207489;28;20105;-65
2023/12/14 00:30:21;;;;;;;30.77;25.75;;;;;;;;;;10205434;28;20080;-65
2023/12/14 00:35:21;;;;;;;28.95;25.13;;;;;;;;;;10209140;28;20486;-66
2023/12/14 00:40:19;;;;;;;27.98;22.98;;;;;;;;;;10208517;28;20080;-65
2023/12/14 00:45:17;;;;;;;26.25;23.17;;;;;;;;;;10207952;28;20077;-65
2023/12/14 00:50:15;;;;;;;37.00;31.10;;;;;;;;;;10207213;28;20288;-65
2023/12/14 00:55:15;;;;;;;31.00;24.10;;;;;;;;;;10190242;28;20073;-65
2023/12/14 01:00:14;;;;;;;45.22;35.38;;;;;;;;;;10207471;28;20080;-65
2023/12/14 01:05:12;;;;;;;33.53;26.30;;;;;;;;;;10208798;28;20077;-65
2023/12/14 01:10:11;;;;;;;37.72;32.22;;;;;;;;;;10208044;28;20068;-65
2023/12/14 01:15:11;;;;;;;31.73;26.85;;;;;;;;;;10206128;28;20542;-65
2023/12/14 01:20:10;;;;;;;26.08;23.25;;;;;;;;;;10205417;28;20080;-65
2023/12/14 01:25:09;;;;;;;29.80;24.00;;;;;;;;;;10204598;28;20081;-66
2023/12/14 01:30:08;;;;;;;31.48;24.65;;;;;;;;;;10204816;28;20069;-65
2023/12/14 01:35:08;;;;;;;28.73;24.35;;;;;;;;;;10206377;28;20176;-65
2023/12/14 01:40:07;;;;;;;29.02;24.23;;;;;;;;;;10205024;28;20084;-65
2023/12/14 01:45:06;;;;;;;29.77;25.48;;;;;;;;;;10205043;28;20074;-66
2023/12/14 01:50:04;;;;;;;65.13;45.15;;;;;;;;;;10204432;28;20149;-66
2023/12/14 01:55:04;;;;;;;55.35;39.80;;;;;;;;;;10202634;28;20092;-65
2023/12/14 02:00:03;;;;;;;40.58;31.23;;;;;;;;;;10206085;28;20085;-66
2023/12/14 02:05:02;;;;;;;31.02;26.70;;;;;;;;;;10204751;28;20518;-65
2023/12/14 02:10:00;;;;;;;28.30;24.50;;;;;;;;;;10203293;28;20072;-65
2023/12/14 02:15:00;;;;;;;35.92;30.25;;;;;;;;;;10205891;28;20538;-65
2023/12/14 02:20:00;;;;;;;38.55;28.38;;;;;;;;;;10209012;28;20103;-65
2023/12/14 02:25:00;;;;;;;32.92;28.50;;;;;;;;;;10214381;28;20520;-65
2023/12/14 02:29:58;;;;;;;30.20;25.55;;;;;;;;;;10212500;28;20497;-65
2023/12/14 02:34:56;;;;;;;27.58;23.27;;;;;;;;;;10212105;28;20073;-65
2023/12/14 02:39:55;;;;;;;29.67;24.83;;;;;;;;;;10213174;28;20073;-65
2023/12/14 02:44:54;;;;;;;32.42;26.58;;;;;;;;;;10212637;28;20530;-65
2023/12/14 02:49:52;;;;;;;28.40;23.33;;;;;;;;;;10212469;28;20076;-64
2023/12/14 02:54:50;;;;;;;30.63;25.10;;;;;;;;;;10208253;28;20065;-65
2023/12/14 02:59:49;;;;;;;36.08;26.08;;;;;;;;;;10213732;28;20065;-64
2023/12/14 03:04:48;;;;;;;30.58;27.02;;;;;;;;;;10211139;28;20069;-65
2023/12/14 03:09:47;;;;;;;31.38;25.02;;;;;;;;;;10211762;28;20073;-65
2023/12/14 03:14:45;;;;;;;33.65;27.33;;;;;;;;;;10212284;28;20479;-65
2023/12/14 03:19:43;;;;;;;30.73;26.13;;;;;;;;;;10212578;28;20073;-65
2023/12/14 03:24:43;;;;;;;25.70;22.08;;;;;;;;;;10195334;28;20534;-65
2023/12/14 03:29:41;;;;;;;28.02;23.42;;;;;;;;;;10210327;28;20598;-65
2023/12/14 03:34:40;;;;;;;23.50;20.80;;;;;;;;;;10212606;28;20447;-65
2023/12/14 03:39:38;;;;;;;26.73;22.13;;;;;;;;;;10211689;28;20468;-65
2023/12/14 03:44:38;;;;;;;25.67;21.30;;;;;;;;;;10206024;28;20076;-65
2023/12/14 03:49:37;;;;;;;42.47;37.13;;;;;;;;;;10210041;28;20245;-65
2023/12/14 03:54:36;;;;;;;27.55;23.77;;;;;;;;;;10210289;28;20077;-65
2023/12/14 03:59:34;;;;;;;63.30;51.10;;;;;;;;;;10209611;28;20069;-65
2023/12/14 04:04:33;;;;;;;58.03;47.55;;;;;;;;;;10208663;28;20066;-64
2023/12/14 04:09:32;;;;;;;41.42;34.83;;;;;;;;;;10209348;28;20077;-65
2023/12/14 04:14:30;;;;;;;32.25;27.27;;;;;;;;;;10205577;28;20472;-65
2023/12/14 04:19:28;;;;;;;25.70;21.77;;;;;;;;;;10210333;28;20480;-65
2023/12/14 04:24:27;;;;;;;29.45;21.85;;;;;;;;;;10209050;28;20831;-65
2023/12/14 04:29:26;;;;;;;26.92;22.75;;;;;;;;;;10208538;28;20069;-65
2023/12/14 04:34:24;;;;;;;24.73;21.13;;;;;;;;;;10210113;28;20085;-65
2023/12/14 04:39:22;;;;;;;21.88;19.02;;;;;;;;;;10207896;28;20481;-65
2023/12/14 04:44:22;;;;;;;23.95;19.42;;;;;;;;;;10206969;28;20483;-64
2023/12/14 04:49:20;;;;;;;23.02;19.75;;;;;;;;;;10209124;28;20085;-65
2023/12/14 04:54:18;;;;;;;20.48;18.05;;;;;;;;;;10202297;28;20073;-65
2023/12/14 04:59:17;;;;;;;21.02;17.30;;;;;;;;;;10207986;28;20057;-66
2023/12/14 05:04:16;;;;;;;59.50;47.42;;;;;;;;;;10209363;28;20468;-65
2023/12/14 05:09:14;;;;;;;45.63;33.17;;;;;;;;;;10206335;28;20498;-65
2023/12/14 05:14:13;;;;;;;144.95;97.55;;;;;;;;;;10208203;28;20068;-65
2023/12/14 05:19:12;;;;;;;103.40;73.90;;;;;;;;;;10207431;28;20061;-65
2023/12/14 05:24:12;;;;;;;71.07;52.97;;;;;;;;;;10207148;28;20073;-66
2023/12/14 05:29:10;;;;;;;26.40;20.85;;;;;;;;;;10199197;28;21366;-65
2023/12/14 05:34:08;;;;;;;15.38;11.60;;;;;;;;;;10174819;28;20128;-65
2023/12/14 05:39:07;;;;;;;77.78;61.10;;;;;;;;;;10156022;28;20633;-65
2023/12/14 05:44:07;;;;;;;42.33;31.95;;;;;;;;;;10178895;28;20132;-65
2023/12/14 05:49:05;;;;;;;39.70;31.88;;;;;;;;;;10182924;28;20144;-65
2023/12/14 05:54:03;;;;;;;10.82;9.55;;;;;;;;;;10203640;28;20072;-65
2023/12/14 05:59:02;;;;;;;64.28;52.05;;;;;;;;;;10198333;28;20057;-65
2023/12/14 06:04:02;;;;;;;59.10;51.03;;;;;;;;;;10184563;28;20128;-64
2023/12/14 06:09:00;;;;;;;61.45;51.25;;;;;;;;;;10179122;28;20144;-65
2023/12/14 06:13:59;;;;;;;70.13;59.40;;;;;;;;;;10152160;28;20052;-65
2023/12/14 06:18:57;;;;;;;159.02;41.60;;;;;;;;;;10152642;28;20707;-65
2023/12/14 06:23:58;;;;;;;277.52;52.03;;;;;;;;;;10186575;28;20149;-64
2023/12/14 06:28:57;;;;;;;144.43;43.22;;;;;;;;;;10173516;28;20045;-63
2023/12/14 06:33:55;;;;;;;103.40;77.03;;;;;;;;;;10195910;28;20160;-65
2023/12/14 06:38:59;;;;;;;42.88;33.80;;;;;;;;;;10184140;28;20141;-65
2023/12/14 06:43:58;;;;;;;43.42;32.92;;;;;;;;;;10206505;28;20076;-65
2023/12/14 06:48:56;;;;;;;39.05;33.30;;;;;;;;;;10202461;28;20080;-66
2023/12/14 06:53:54;;;;;;;56.83;48.03;;;;;;;;;;10178425;28;20140;-66
2023/12/14 06:58:54;;;;;;;40.85;34.20;;;;;;;;;;10195299;28;20124;-65
2023/12/14 07:03:52;;;;;;;36.15;30.13;;;;;;;;;;10202074;28;20621;-66
2023/12/14 07:08:51;;;;;;;39.80;33.08;;;;;;;;;;10210066;28;20517;-66
2023/12/14 08:35:30;;;;;;;47.65;41.40;;;;;;;;;;10322874;27;20399;-64
2023/12/14 08:40:29;;;;;;;37.03;32.33;;;;;;;;;;10296320;28;20584;-64
2023/12/14 08:45:27;;;;;;;34.22;29.98;;;;;;;;;;10294195;28;20066;-60
2023/12/14 08:50:26;;;;;;;43.03;34.30;;;;;;;;;;10294850;28;20127;-60
2023/12/14 08:55:26;;;;;;;45.30;38.70;;;;;;;;;;10301680;28;20081;-60
2023/12/14 09:00:24;;;;;;;61.75;34.97;;;;;;;;;;10299802;28;20087;-64
2023/12/14 09:05:22;;;;;;;73.97;33.67;;;;;;;;;;10272295;28;20608;-65
2023/12/14 09:10:21;;;;;;;40.38;34.13;;;;;;;;;;10263218;28;20054;-64
2023/12/14 09:15:20;;;;;;;35.42;29.33;;;;;;;;;;10261545;28;20041;-65
2023/12/14 09:20:19;;;;;;;39.55;33.97;;;;;;;;;;10265111;28;20040;-60
2023/12/14 09:25:19;;;;;;;46.72;37.60;;;;;;;;;;10295978;28;20480;-60
2023/12/14 09:30:18;;;;;;;54.20;39.70;;;;;;;;;;10300280;28;20064;-60
2023/12/14 09:35:17;;;;;;;54.17;39.17;;;;;;;;;;10283469;28;20526;-59
2023/12/14 09:40:16;;;;;;;70.25;45.00;;;;;;;;;;10295590;28;20182;-61
2023/12/14 09:45:17;;;;;;;63.35;39.00;;;;;;;;;;10307073;28;20135;-60
2023/12/14 09:50:16;;;;;;;60.25;39.53;;;;;;;;;;10305408;28;20540;-60
2023/12/14 09:55:15;;;;;;;76.78;44.72;;;;;;;;;;10315083;28;20179;-59
2023/12/14 10:00:33;;;;;;;75.38;46.72;;;;;;;;;;10277843;28;20605;-59
2023/12/14 10:05:31;;;;;;;62.22;35.92;;;;;;;;;;10280819;28;20075;-59
2023/12/14 10:10:31;;;;;;;63.35;38.67;;;;;;;;;;10282458;28;20083;-60
2023/12/14 10:15:30;;;;;;;58.03;40.78;;;;;;;;;;10290895;28;20087;-60
2023/12/14 10:20:28;;;;;;;70.25;46.70;;;;;;;;;;10277821;28;20634;-60
2023/12/14 10:25:26;;;;;;;52.75;36.95;;;;;;;;;;10278793;28;20068;-60
2023/12/14 10:30:27;;;;;;;51.88;39.05;;;;;;;;;;10284025;28;20077;-60
2023/12/14 10:35:27;;;;;;;51.03;38.90;;;;;;;;;;10284165;28;20080;-60
2023/12/14 10:40:25;;;;;;;62.50;45.38;;;;;;;;;;10288920;28;20079;-61
2023/12/14 10:45:26;;;;;;;62.15;45.47;;;;;;;;;;10283791;28;20095;-60
2023/12/14 10:50:27;;;;;;;47.95;36.63;;;;;;;;;;10286156;28;20094;-60
2023/12/14 10:55:26;;;;;;;46.53;37.08;;;;;;;;;;10285792;28;20084;-60
2023/12/14 11:00:25;;;;;;;42.42;35.33;;;;;;;;;;10285485;28;20064;-60
2023/12/14 11:05:29;;;;;;;40.33;32.90;;;;;;;;;;10289978;28;20451;-60
2023/12/14 11:10:29;;;;;;;41.33;33.38;;;;;;;;;;10285667;28;20098;-60
2023/12/14 11:15:28;;;;;;;41.05;33.08;;;;;;;;;;10285610;28;20072;-60
2023/12/14 11:20:27;;;;;;;39.08;30.75;;;;;;;;;;10289454;28;20462;-59
2023/12/14 11:25:26;;;;;;;34.70;29.40;;;;;;;;;;10287724;28;20466;-60
2023/12/14 11:30:37;;;;;;;51.90;41.30;;;;;;;;;;10288702;28;20486;-60
2023/12/14 11:35:52;;;;;;;49.70;37.72;;;;;;;;;;10286767;28;20076;-60
2023/12/14 11:40:51;;;;;;;40.42;33.05;;;;;;;;;;10282950;28;20492;-59
2023/12/14 11:45:51;;;;;;;44.70;33.80;;;;;;;;;;10287244;28;20069;-59
2023/12/14 11:50:50;;;;;;;65.90;44.67;;;;;;;;;;10287419;28;20060;-59
2023/12/14 11:55:48;;;;;;;59.25;47.63;;;;;;;;;;10286007;28;20073;-60
2023/12/14 12:00:47;;;;;;;49.28;36.45;;;;;;;;;;10284583;28;20459;-59
2023/12/14 12:05:47;;;;;;;46.78;34.58;;;;;;;;;;10286978;28;20044;-60
2023/12/14 12:10:46;;;;;;;44.45;32.65;;;;;;;;;;10286368;28;20079;-59
2023/12/14 12:15:45;;;;;;;40.33;32.28;;;;;;;;;;10288574;28;20080;-60
2023/12/14 12:20:43;;;;;;;29.50;24.23;;;;;;;;;;10287026;28;20064;-59
2023/12/14 12:25:43;;;;;;;27.58;23.95;;;;;;;;;;10284885;28;20413;-59
2023/12/14 12:30:41;;;;;;;27.85;23.80;;;;;;;;;;10287932;28;20524;-59
2023/12/14 12:35:40;;;;;;;32.00;26.05;;;;;;;;;;10285262;28;20072;-59
2023/12/14 12:40:39;;;;;;;25.80;22.48;;;;;;;;;;10286217;28;20076;-60
2023/12/14 12:45:39;;;;;;;32.10;23.67;;;;;;;;;;10286107;28;20501;-59
2023/12/14 12:50:37;;;;;;;28.65;22.52;;;;;;;;;;10286217;28;20061;-60
2023/12/14 12:55:36;;;;;;;29.27;23.23;;;;;;;;;;10280903;28;20076;-60
2023/12/14 13:00:35;;;;;;;33.15;25.10;;;;;;;;;;10286186;28;20501;-60
2023/12/14 13:05:35;;;;;;;30.65;24.42;;;;;;;;;;10286861;28;20552;-60
2023/12/14 13:10:33;;;;;;;28.88;24.33;;;;;;;;;;10291412;28;20073;-60
2023/12/14 13:15:31;;;;;;;30.90;24.63;;;;;;;;;;10293850;28;20068;-60
2023/12/14 13:20:29;;;;;;;39.22;30.67;;;;;;;;;;10291587;28;20099;-60
2023/12/14 13:25:29;;;;;;;27.50;20.20;;;;;;;;;;10292034;28;20068;-61
2023/12/14 13:30:28;;;;;;;33.22;24.90;;;;;;;;;;10293196;28;20056;-61
2023/12/14 13:35:27;;;;;;;27.17;20.40;;;;;;;;;;10293223;28;20075;-61
2023/12/14 13:40:26;;;;;;;28.00;21.48;;;;;;;;;;10291912;28;20072;-61
2023/12/14 13:45:25;;;;;;;44.95;33.22;;;;;;;;;;10287210;28;20073;-61
2023/12/14 13:50:26;;;;;;;35.53;27.77;;;;;;;;;;10294286;28;20049;-60
2023/12/14 13:55:24;;;;;;;24.45;20.95;;;;;;;;;;10290788;28;20108;-61
2023/12/14 14:00:24;;;;;;;24.45;19.45;;;;;;;;;;10285071;28;20068;-61
2023/12/14 14:05:23;;;;;;;22.75;18.60;;;;;;;;;;10291631;28;20068;-61
2023/12/14 14:10:22;;;;;;;28.92;24.20;;;;;;;;;;10292195;28;20080;-60
2023/12/14 14:15:21;;;;;;;28.70;22.80;;;;;;;;;;10294444;28;20076;-61
2023/12/14 14:20:19;;;;;;;23.65;18.63;;;;;;;;;;10292960;28;20083;-60
2023/12/14 14:25:19;;;;;;;27.05;21.77;;;;;;;;;;10290073;28;20076;-60
2023/12/14 14:30:18;;;;;;;23.27;20.88;;;;;;;;;;10292305;28;20072;-60
2023/12/14 14:35:16;;;;;;;27.45;22.25;;;;;;;;;;10290117;28;20076;-61
2023/12/14 14:40:15;;;;;;;23.65;20.60;;;;;;;;;;10291212;28;20085;-60
2023/12/14 14:45:15;;;;;;;26.38;22.02;;;;;;;;;;10292440;28;20083;-60
2023/12/14 14:50:13;;;;;;;50.85;35.60;;;;;;;;;;10287908;28;20083;-60
2023/12/14 14:55:12;;;;;;;34.42;25.50;;;;;;;;;;10285351;28;20076;-61
2023/12/14 15:00:10;;;;;;;26.48;20.67;;;;;;;;;;10288828;28;20076;-60
2023/12/14 15:05:10;;;;;;;27.27;23.20;;;;;;;;;;10289541;28;20072;-60
2023/12/14 15:10:09;;;;;;;36.97;28.73;;;;;;;;;;10287958;28;20064;-60
2023/12/14 15:15:07;;;;;;;19.98;16.17;;;;;;;;;;10287422;28;20072;-60
2023/12/14 15:20:08;;;;;;;18.83;16.88;;;;;;;;;;10286149;28;20083;-60
2023/12/14 15:25:08;;;;;;;20.17;16.02;;;;;;;;;;10287268;28;20091;-60
2023/12/14 15:30:08;;;;;;;42.65;32.05;;;;;;;;;;10286460;28;20103;-61
2023/12/14 15:35:07;;;;;;;70.20;44.53;;;;;;;;;;10289914;28;20085;-60
2023/12/14 15:40:06;;;;;;;47.65;36.38;;;;;;;;;;10287285;28;20492;-61
2023/12/14 15:45:06;;;;;;;19.58;17.58;;;;;;;;;;10284049;28;20079;-62
2023/12/14 15:50:08;;;;;;;19.17;17.17;;;;;;;;;;10288697;28;20068;-60
2023/12/14 15:55:07;;;;;;;26.15;21.25;;;;;;;;;;10280178;28;20732;-60
2023/12/14 16:00:09;;;;;;;23.38;20.02;;;;;;;;;;10286996;28;20482;-62
2023/12/14 16:05:10;;;;;;;22.50;20.13;;;;;;;;;;10288407;28;20084;-61
2023/12/14 16:10:09;;;;;;;24.73;21.65;;;;;;;;;;10286751;28;20084;-60
2023/12/14 16:15:09;;;;;;;23.90;20.67;;;;;;;;;;10285503;28;20477;-60
2023/12/14 16:20:08;;;;;;;29.48;26.00;;;;;;;;;;10277024;28;20103;-60
2023/12/14 16:25:08;;;;;;;19.92;17.80;;;;;;;;;;10283935;28;20150;-61
2023/12/14 16:30:07;;;;;;;16.85;15.05;;;;;;;;;;10282711;28;20072;-61
2023/12/14 16:35:08;;;;;;;14.60;13.02;;;;;;;;;;10282575;28;20551;-61
2023/12/14 16:40:07;;;;;;;17.55;14.80;;;;;;;;;;10283544;28;20076;-61
2023/12/14 16:45:06;;;;;;;20.33;17.65;;;;;;;;;;10285872;28;20074;-60
2023/12/14 16:50:04;;;;;;;19.05;16.25;;;;;;;;;;10292484;28;20076;-59
2023/12/14 16:55:04;;;;;;;21.35;17.77;;;;;;;;;;10293521;28;20099;-60
2023/12/14 17:00:03;;;;;;;15.13;13.70;;;;;;;;;;10288045;28;20073;-62
2023/12/14 17:05:02;;;;;;;13.27;11.85;;;;;;;;;;10292724;28;20310;-60
2023/12/14 17:10:02;;;;;;;30.92;27.73;;;;;;;;;;10288070;28;20079;-60
2023/12/14 17:15:02;;;;;;;24.10;21.80;;;;;;;;;;10294097;28;20536;-61
2023/12/14 17:20:00;;;;;;;38.22;30.27;;;;;;;;;;10287590;28;20079;-60
2023/12/14 17:24:58;;;;;;;34.90;31.25;;;;;;;;;;10276788;28;20497;-61
2023/12/14 17:29:57;;;;;;;41.55;35.42;;;;;;;;;;10278248;28;21749;-60
2023/12/14 17:34:56;;;;;;;28.77;24.65;;;;;;;;;;10277489;28;20451;-61
2023/12/14 17:39:55;;;;;;;49.35;42.92;;;;;;;;;;10276463;28;20044;-60
2023/12/14 17:44:53;;;;;;;28.40;25.52;;;;;;;;;;10275892;28;20032;-66
2023/12/14 17:49:51;;;;;;;16.20;14.60;;;;;;;;;;10274203;28;20051;-64
2023/12/14 17:54:52;;;;;;;20.05;17.95;;;;;;;;;;10287861;28;20047;-63
2023/12/14 17:59:50;;;;;;;37.60;33.92;;;;;;;;;;10293541;28;20768;-64
2023/12/14 18:04:48;;;;;;;10.27;9.18;;;;;;;;;;10285748;28;21364;-65
2023/12/14 18:09:47;;;;;;;12.35;11.13;;;;;;;;;;10283589;28;21542;-63
2023/12/14 18:14:46;;;;;;;21.02;17.95;;;;;;;;;;10297900;28;20509;-64
2023/12/14 18:19:44;;;;;;;16.67;12.48;;;;;;;;;;10306784;28;20127;-65
2023/12/14 18:24:43;;;;;;;18.60;14.50;;;;;;;;;;10294413;28;20138;-66
2023/12/14 18:29:41;;;;;;;11.38;10.23;;;;;;;;;;10277340;28;20049;-65
2023/12/14 18:34:41;;;;;;;17.25;13.80;;;;;;;;;;10287442;28;20708;-65
2023/12/14 18:39:39;;;;;;;34.65;26.40;;;;;;;;;;10296589;28;20556;-64
2023/12/14 18:44:37;;;;;;;12.63;11.13;;;;;;;;;;10291991;28;20473;-66
2023/12/14 18:49:36;;;;;;;11.68;10.30;;;;;;;;;;10311233;28;20072;-64
2023/12/14 18:54:36;;;;;;;12.02;9.80;;;;;;;;;;10318239;28;20080;-65
2023/12/14 18:59:34;;;;;;;16.77;12.75;;;;;;;;;;10301471;28;21727;-65
2023/12/14 19:04:32;;;;;;;17.58;14.98;;;;;;;;;;10311864;28;20064;-65
2023/12/14 19:09:30;;;;;;;18.95;16.38;;;;;;;;;;10312222;28;20068;-65
2023/12/14 19:14:30;;;;;;;15.80;13.55;;;;;;;;;;10300570;28;20182;-64
2023/12/14 19:19:28;;;;;;;14.40;12.98;;;;;;;;;;10305046;28;20516;-65
2023/12/14 19:24:26;;;;;;;16.50;13.75;;;;;;;;;;10303848;28;20072;-64
2023/12/14 19:29:25;;;;;;;11.55;9.77;;;;;;;;;;10301609;28;20139;-64
2023/12/14 19:34:25;;;;;;;12.70;11.35;;;;;;;;;;10289312;28;20517;-64
2023/12/14 19:39:23;;;;;;;33.17;24.60;;;;;;;;;;10284548;28;20068;-65
2023/12/14 19:44:22;;;;;;;14.27;12.85;;;;;;;;;;10282534;28;20063;-65
2023/12/14 19:49:20;;;;;;;11.27;9.18;;;;;;;;;;10284090;28;20072;-66
2023/12/14 19:54:20;;;;;;;10.82;9.80;;;;;;;;;;10280930;28;20071;-64
2023/12/14 19:59:19;;;;;;;5.80;5.30;;;;;;;;;;10285121;28;20056;-66
2023/12/14 20:04:17;;;;;;;7.53;6.75;;;;;;;;;;10286875;28;20072;-64
2023/12/14 20:09:15;;;;;;;7.03;6.35;;;;;;;;;;10276338;28;20063;-63
2023/12/14 20:14:15;;;;;;;6.38;5.75;;;;;;;;;;10284201;28;20061;-64
2023/12/14 20:19:13;;;;;;;11.63;10.52;;;;;;;;;;10284525;28;20075;-64
2023/12/14 20:24:12;;;;;;;7.32;6.50;;;;;;;;;;10282123;28;20437;-65
2023/12/14 20:29:11;;;;;;;21.23;15.30;;;;;;;;;;10285005;28;20068;-65
2023/12/14 20:34:10;;;;;;;12.32;9.90;;;;;;;;;;10282036;28;20079;-64
2023/12/14 20:39:09;;;;;;;10.23;7.10;;;;;;;;;;10287409;28;20087;-65
2023/12/14 20:44:07;;;;;;;23.00;13.95;;;;;;;;;;10279027;28;20083;-65
2023/12/14 20:49:05;;;;;;;13.05;9.90;;;;;;;;;;10282970;28;20081;-65
2023/12/14 20:54:05;;;;;;;47.53;30.50;;;;;;;;;;10283613;28;20072;-64
2023/12/14 20:59:03;;;;;;;46.83;28.45;;;;;;;;;;10279453;28;20072;-64
2023/12/14 21:04:01;;;;;;;19.02;14.07;;;;;;;;;;10281289;28;20067;-65
2023/12/14 21:09:00;;;;;;;9.77;8.00;;;;;;;;;;10284358;28;20064;-64
2023/12/14 21:13:59;;;;;;;7.60;6.80;;;;;;;;;;10284689;28;20069;-63
2023/12/14 21:18:58;;;;;;;6.70;5.80;;;;;;;;;;10282473;28;20091;-64
2023/12/14 21:23:56;;;;;;;9.20;7.18;;;;;;;;;;10284432;28;20073;-64
2023/12/14 21:28:54;;;;;;;10.15;7.75;;;;;;;;;;10286405;28;20096;-66
2023/12/14 21:33:54;;;;;;;8.10;5.82;;;;;;;;;;10292072;28;20090;-64
2023/12/14 21:38:52;;;;;;;6.22;5.68;;;;;;;;;;10289836;28;20088;-64
2023/12/14 21:43:50;;;;;;;9.52;8.35;;;;;;;;;;10289587;28;20510;-64
2023/12/14 21:48:49;;;;;;;6.30;5.80;;;;;;;;;;10289180;28;20071;-64
2023/12/14 21:53:48;;;;;;;5.93;5.30;;;;;;;;;;10292641;28;20496;-64
2023/12/14 21:58:46;;;;;;;7.90;7.15;;;;;;;;;;10288521;28;20709;-63
2023/12/14 22:03:45;;;;;;;7.07;5.20;;;;;;;;;;10290066;28;20069;-63
2023/12/14 22:08:43;;;;;;;6.80;5.55;;;;;;;;;;10290570;28;20171;-65
2023/12/14 22:13:42;;;;;;;6.18;5.25;;;;;;;;;;10288689;28;20485;-65
2023/12/14 22:18:41;;;;;;;6.25;5.18;;;;;;;;;;10285736;28;20074;-64
2023/12/14 22:23:39;;;;;;;8.50;5.57;;;;;;;;;;10286854;28;20075;-64
2023/12/14 22:28:37;;;;;;;5.82;5.00;;;;;;;;;;10288611;28;20072;-65
2023/12/14 22:33:37;;;;;;;4.85;4.45;;;;;;;;;;10287927;28;20080;-64
2023/12/14 22:38:35;;;;;;;4.82;4.10;;;;;;;;;;10287627;28;20526;-64
2023/12/14 22:43:34;;;;;;;5.15;4.03;;;;;;;;;;10289116;28;20076;-64
2023/12/14 22:48:32;;;;;;;4.55;3.88;;;;;;;;;;10288086;28;20540;-64
2023/12/14 22:53:32;;;;;;;7.47;6.78;;;;;;;;;;10283763;28;20076;-64
2023/12/14 22:58:30;;;;;;;6.18;5.60;;;;;;;;;;10284171;28;20082;-64
2023/12/14 23:03:28;;;;;;;5.15;4.38;;;;;;;;;;10287893;28;20493;-64
2023/12/14 23:08:27;;;;;;;9.30;6.90;;;;;;;;;;10286482;28;20079;-64
2023/12/14 23:13:27;;;;;;;6.40;5.80;;;;;;;;;;10285652;28;20076;-64
2023/12/14 23:18:25;;;;;;;6.65;6.05;;;;;;;;;;10282377;28;20079;-64
2023/12/14 23:23:24;;;;;;;6.97;6.20;;;;;;;;;;10283022;28;20079;-64
2023/12/14 23:28:22;;;;;;;7.70;6.10;;;;;;;;;;10284915;28;20065;-64
2023/12/14 23:33:22;;;;;;;7.22;6.35;;;;;;;;;;10284876;28;20068;-64
2023/12/14 23:38:20;;;;;;;8.63;6.07;;;;;;;;;;10284517;28;20079;-64
2023/12/14 23:43:19;;;;;;;7.60;5.95;;;;;;;;;;10285562;28;20075;-64
2023/12/14 23:48:17;;;;;;;5.80;5.22;;;;;;;;;;10286862;28;20103;-64
2023/12/14 23:53:17;;;;;;;5.60;5.05;;;;;;;;;;10286560;28;20083;-63
2023/12/14 23:58:15;;;;;;;5.93;5.40;;;;;;;;;;10286189;28;20170;-64
